sensor_id;sensor_type;location;lat;lon;timestamp;P1;durP1;ratioP1;P2;durP2;ratioP2
819;SDS011;392;48.838;2.322;2024-02-26T00:00:44;7.50;;;6.73;;
819;SDS011;392;48.838;2.322;2024-02-26T00:03:11;6.50;;;5.90;;
819;SDS011;392;48.838;2.322;2024-02-26T00:05:40;6.07;;;5.57;;
819;SDS011;392;48.838;2.322;2024-02-26T00:08:07;6.23;;;5.83;;
819;SDS011;392;48.838;2.322;2024-02-26T00:10:34;6.27;;;5.67;;
819;SDS011;392;48.838;2.322;2024-02-26T00:13:01;6.03;;;5.50;;
819;SDS011;392;48.838;2.322;2024-02-26T00:15:29;7.60;;;5.20;;
819;SDS011;392;48.838;2.322;2024-02-26T00:17:56;6.60;;;5.93;;
819;SDS011;392;48.838;2.322;2024-02-26T00:20:23;5.50;;;5.20;;
819;SDS011;392;48.838;2.322;2024-02-26T00:22:52;5.47;;;5.00;;
819;SDS011;392;48.838;2.322;2024-02-26T00:25:19;5.60;;;5.10;;
819;SDS011;392;48.838;2.322;2024-02-26T00:27:46;5.93;;;5.30;;
819;SDS011;392;48.838;2.322;2024-02-26T00:30:14;5.40;;;5.00;;
819;SDS011;392;48.838;2.322;2024-02-26T00:32:41;5.13;;;4.73;;
819;SDS011;392;48.838;2.322;2024-02-26T00:35:08;5.50;;;5.10;;
819;SDS011;392;48.838;2.322;2024-02-26T00:37:36;5.10;;;4.70;;
819;SDS011;392;48.838;2.322;2024-02-26T00:40:05;4.53;;;4.10;;
819;SDS011;392;48.838;2.322;2024-02-26T00:42:34;6.30;;;4.40;;
819;SDS011;392;48.838;2.322;2024-02-26T00:45:01;4.97;;;4.47;;
819;SDS011;392;48.838;2.322;2024-02-26T00:47:29;4.57;;;4.20;;
819;SDS011;392;48.838;2.322;2024-02-26T00:49:56;5.27;;;4.87;;
819;SDS011;392;48.838;2.322;2024-02-26T00:52:23;5.37;;;3.87;;
819;SDS011;392;48.838;2.322;2024-02-26T00:54:50;4.00;;;3.60;;
819;SDS011;392;48.838;2.322;2024-02-26T00:57:19;4.10;;;3.80;;
819;SDS011;392;48.838;2.322;2024-02-26T00:59:46;4.50;;;4.10;;
819;SDS011;392;48.838;2.322;2024-02-26T01:02:13;3.80;;;3.50;;
819;SDS011;392;48.838;2.322;2024-02-26T01:04:40;4.53;;;3.57;;
819;SDS011;392;48.838;2.322;2024-02-26T01:07:08;3.60;;;3.27;;
819;SDS011;392;48.838;2.322;2024-02-26T01:09:36;3.70;;;3.40;;
819;SDS011;392;48.838;2.322;2024-02-26T01:12:03;3.60;;;3.30;;
819;SDS011;392;48.838;2.322;2024-02-26T01:14:32;4.27;;;3.93;;
819;SDS011;392;48.838;2.322;2024-02-26T01:17:00;5.27;;;3.97;;
819;SDS011;392;48.838;2.322;2024-02-26T01:19:28;4.37;;;3.73;;
819;SDS011;392;48.838;2.322;2024-02-26T01:21:55;3.87;;;3.57;;
819;SDS011;392;48.838;2.322;2024-02-26T01:24:22;4.70;;;4.30;;
819;SDS011;392;48.838;2.322;2024-02-26T01:26:49;4.00;;;3.60;;
819;SDS011;392;48.838;2.322;2024-02-26T01:29:16;3.93;;;3.63;;
819;SDS011;392;48.838;2.322;2024-02-26T01:31:45;3.70;;;3.40;;
819;SDS011;392;48.838;2.322;2024-02-26T01:34:12;3.63;;;3.33;;
819;SDS011;392;48.838;2.322;2024-02-26T01:36:39;4.77;;;4.20;;
819;SDS011;392;48.838;2.322;2024-02-26T01:39:07;4.67;;;3.50;;
819;SDS011;392;48.838;2.322;2024-02-26T01:41:36;6.73;;;4.73;;
819;SDS011;392;48.838;2.322;2024-02-26T01:44:04;5.80;;;3.27;;
819;SDS011;392;48.838;2.322;2024-02-26T01:46:31;3.87;;;3.53;;
819;SDS011;392;48.838;2.322;2024-02-26T01:49:02;3.73;;;3.13;;
819;SDS011;392;48.838;2.322;2024-02-26T01:51:30;4.90;;;3.33;;
819;SDS011;392;48.838;2.322;2024-02-26T01:53:58;7.10;;;4.07;;
819;SDS011;392;48.838;2.322;2024-02-26T01:56:28;3.97;;;3.60;;
819;SDS011;392;48.838;2.322;2024-02-26T01:58:57;4.13;;;3.43;;
819;SDS011;392;48.838;2.322;2024-02-26T02:01:25;5.80;;;3.60;;
819;SDS011;392;48.838;2.322;2024-02-26T02:03:55;5.40;;;3.23;;
819;SDS011;392;48.838;2.322;2024-02-26T02:06:26;3.53;;;3.27;;
819;SDS011;392;48.838;2.322;2024-02-26T02:08:54;4.40;;;3.27;;
819;SDS011;392;48.838;2.322;2024-02-26T02:11:22;7.00;;;3.50;;
819;SDS011;392;48.838;2.322;2024-02-26T02:13:49;7.00;;;4.07;;
819;SDS011;392;48.838;2.322;2024-02-26T02:16:17;6.80;;;3.33;;
819;SDS011;392;48.838;2.322;2024-02-26T02:18:44;6.57;;;3.43;;
819;SDS011;392;48.838;2.322;2024-02-26T02:21:12;5.43;;;3.17;;
819;SDS011;392;48.838;2.322;2024-02-26T02:23:39;5.00;;;2.67;;
819;SDS011;392;48.838;2.322;2024-02-26T02:26:11;5.13;;;3.00;;
819;SDS011;392;48.838;2.322;2024-02-26T02:28:39;5.47;;;2.83;;
819;SDS011;392;48.838;2.322;2024-02-26T02:31:07;7.93;;;2.53;;
819;SDS011;392;48.838;2.322;2024-02-26T02:33:34;7.87;;;2.83;;
819;SDS011;392;48.838;2.322;2024-02-26T02:36:01;7.97;;;2.77;;
819;SDS011;392;48.838;2.322;2024-02-26T02:38:30;3.90;;;2.57;;
819;SDS011;392;48.838;2.322;2024-02-26T02:40:59;3.60;;;2.90;;
819;SDS011;392;48.838;2.322;2024-02-26T02:43:26;3.90;;;2.60;;
819;SDS011;392;48.838;2.322;2024-02-26T02:45:53;6.63;;;3.30;;
819;SDS011;392;48.838;2.322;2024-02-26T02:48:20;5.13;;;3.10;;
819;SDS011;392;48.838;2.322;2024-02-26T02:50:47;7.63;;;2.90;;
819;SDS011;392;48.838;2.322;2024-02-26T02:53:15;4.30;;;2.80;;
819;SDS011;392;48.838;2.322;2024-02-26T02:55:45;5.80;;;3.57;;
819;SDS011;392;48.838;2.322;2024-02-26T02:58:12;6.43;;;3.13;;
819;SDS011;392;48.838;2.322;2024-02-26T03:00:39;6.77;;;3.17;;
819;SDS011;392;48.838;2.322;2024-02-26T03:03:06;5.73;;;3.90;;
819;SDS011;392;48.838;2.322;2024-02-26T03:05:33;7.30;;;3.50;;
819;SDS011;392;48.838;2.322;2024-02-26T03:08:01;8.53;;;3.70;;
819;SDS011;392;48.838;2.322;2024-02-26T03:10:28;6.43;;;3.10;;
819;SDS011;392;48.838;2.322;2024-02-26T03:12:57;7.00;;;3.30;;
819;SDS011;392;48.838;2.322;2024-02-26T03:15:24;5.90;;;2.80;;
819;SDS011;392;48.838;2.322;2024-02-26T03:17:52;5.93;;;3.33;;
819;SDS011;392;48.838;2.322;2024-02-26T03:20:19;5.67;;;2.50;;
819;SDS011;392;48.838;2.322;2024-02-26T03:22:46;6.43;;;2.93;;
819;SDS011;392;48.838;2.322;2024-02-26T03:25:13;5.37;;;2.70;;
819;SDS011;392;48.838;2.322;2024-02-26T03:27:40;7.10;;;2.97;;
819;SDS011;392;48.838;2.322;2024-02-26T03:30:09;6.60;;;3.10;;
819;SDS011;392;48.838;2.322;2024-02-26T03:32:37;7.83;;;3.20;;
819;SDS011;392;48.838;2.322;2024-02-26T03:35:04;6.00;;;2.73;;
819;SDS011;392;48.838;2.322;2024-02-26T03:37:32;5.27;;;2.40;;
819;SDS011;392;48.838;2.322;2024-02-26T03:39:59;7.43;;;3.03;;
819;SDS011;392;48.838;2.322;2024-02-26T03:42:28;6.63;;;3.37;;
819;SDS011;392;48.838;2.322;2024-02-26T03:44:55;5.20;;;2.50;;
819;SDS011;392;48.838;2.322;2024-02-26T03:47:24;8.37;;;3.57;;
819;SDS011;392;48.838;2.322;2024-02-26T03:49:51;7.90;;;2.83;;
819;SDS011;392;48.838;2.322;2024-02-26T03:52:18;6.17;;;2.87;;
819;SDS011;392;48.838;2.322;2024-02-26T03:54:45;6.13;;;3.13;;
819;SDS011;392;48.838;2.322;2024-02-26T03:57:12;6.07;;;3.67;;
819;SDS011;392;48.838;2.322;2024-02-26T03:59:40;8.13;;;3.90;;
819;SDS011;392;48.838;2.322;2024-02-26T04:02:07;5.20;;;2.80;;
819;SDS011;392;48.838;2.322;2024-02-26T04:04:36;4.83;;;3.10;;
819;SDS011;392;48.838;2.322;2024-02-26T04:07:03;7.33;;;3.00;;
819;SDS011;392;48.838;2.322;2024-02-26T04:09:31;6.73;;;2.83;;
819;SDS011;392;48.838;2.322;2024-02-26T04:11:58;7.50;;;2.77;;
819;SDS011;392;48.838;2.322;2024-02-26T04:14:25;5.40;;;2.90;;
819;SDS011;392;48.838;2.322;2024-02-26T04:16:53;6.97;;;2.30;;
819;SDS011;392;48.838;2.322;2024-02-26T04:19:20;2.60;;;2.27;;
819;SDS011;392;48.838;2.322;2024-02-26T04:21:48;5.07;;;2.70;;
819;SDS011;392;48.838;2.322;2024-02-26T04:24:15;7.70;;;2.90;;
819;SDS011;392;48.838;2.322;2024-02-26T04:26:42;7.13;;;3.20;;
819;SDS011;392;48.838;2.322;2024-02-26T04:29:10;5.23;;;2.70;;
819;SDS011;392;48.838;2.322;2024-02-26T04:31:37;4.80;;;2.47;;
819;SDS011;392;48.838;2.322;2024-02-26T04:34:04;5.27;;;2.97;;
819;SDS011;392;48.838;2.322;2024-02-26T04:36:32;5.80;;;2.70;;
819;SDS011;392;48.838;2.322;2024-02-26T04:39:00;5.93;;;2.90;;
819;SDS011;392;48.838;2.322;2024-02-26T04:41:27;7.23;;;2.97;;
819;SDS011;392;48.838;2.322;2024-02-26T04:43:55;3.90;;;2.83;;
819;SDS011;392;48.838;2.322;2024-02-26T04:46:22;7.07;;;2.50;;
819;SDS011;392;48.838;2.322;2024-02-26T04:48:49;5.63;;;2.93;;
819;SDS011;392;48.838;2.322;2024-02-26T04:51:16;7.60;;;2.90;;
819;SDS011;392;48.838;2.322;2024-02-26T04:53:43;5.03;;;2.77;;
819;SDS011;392;48.838;2.322;2024-02-26T04:56:12;6.53;;;3.00;;
819;SDS011;392;48.838;2.322;2024-02-26T04:58:39;2.77;;;2.27;;
819;SDS011;392;48.838;2.322;2024-02-26T05:01:06;6.73;;;2.73;;
819;SDS011;392;48.838;2.322;2024-02-26T05:03:35;7.73;;;2.60;;
819;SDS011;392;48.838;2.322;2024-02-26T05:06:02;7.23;;;2.70;;
819;SDS011;392;48.838;2.322;2024-02-26T05:08:30;6.10;;;2.77;;
819;SDS011;392;48.838;2.322;2024-02-26T05:10:59;3.10;;;2.77;;
819;SDS011;392;48.838;2.322;2024-02-26T05:13:29;4.97;;;2.73;;
819;SDS011;392;48.838;2.322;2024-02-26T05:15:56;4.63;;;2.40;;
819;SDS011;392;48.838;2.322;2024-02-26T05:18:23;6.33;;;2.57;;
819;SDS011;392;48.838;2.322;2024-02-26T05:20:50;9.40;;;3.40;;
819;SDS011;392;48.838;2.322;2024-02-26T05:23:18;8.23;;;3.10;;
819;SDS011;392;48.838;2.322;2024-02-26T05:25:45;7.47;;;3.10;;
819;SDS011;392;48.838;2.322;2024-02-26T05:28:13;4.33;;;2.80;;
819;SDS011;392;48.838;2.322;2024-02-26T05:30:43;4.03;;;2.87;;
819;SDS011;392;48.838;2.322;2024-02-26T05:33:10;4.37;;;2.77;;
819;SDS011;392;48.838;2.322;2024-02-26T05:35:38;5.00;;;2.73;;
819;SDS011;392;48.838;2.322;2024-02-26T05:38:05;4.90;;;2.97;;
819;SDS011;392;48.838;2.322;2024-02-26T05:40:33;7.73;;;3.77;;
819;SDS011;392;48.838;2.322;2024-02-26T05:43:00;4.60;;;3.27;;
819;SDS011;392;48.838;2.322;2024-02-26T05:45:27;5.30;;;2.77;;
819;SDS011;392;48.838;2.322;2024-02-26T05:47:56;8.30;;;3.43;;
819;SDS011;392;48.838;2.322;2024-02-26T05:50:23;4.77;;;2.73;;
819;SDS011;392;48.838;2.322;2024-02-26T05:52:50;5.87;;;2.30;;
819;SDS011;392;48.838;2.322;2024-02-26T05:55:18;3.83;;;2.50;;
819;SDS011;392;48.838;2.322;2024-02-26T05:57:45;8.30;;;3.50;;
819;SDS011;392;48.838;2.322;2024-02-26T06:00:12;9.23;;;3.37;;
819;SDS011;392;48.838;2.322;2024-02-26T06:02:40;4.33;;;3.00;;
819;SDS011;392;48.838;2.322;2024-02-26T06:05:09;6.20;;;2.77;;
819;SDS011;392;48.838;2.322;2024-02-26T06:07:36;7.70;;;2.67;;
819;SDS011;392;48.838;2.322;2024-02-26T06:10:04;5.67;;;3.07;;
819;SDS011;392;48.838;2.322;2024-02-26T06:12:35;5.07;;;2.57;;
819;SDS011;392;48.838;2.322;2024-02-26T06:15:02;9.00;;;2.77;;
819;SDS011;392;48.838;2.322;2024-02-26T06:17:30;5.50;;;3.07;;
819;SDS011;392;48.838;2.322;2024-02-26T06:19:57;7.63;;;3.90;;
819;SDS011;392;48.838;2.322;2024-02-26T06:22:26;7.80;;;3.90;;
819;SDS011;392;48.838;2.322;2024-02-26T06:24:53;7.87;;;3.77;;
819;SDS011;392;48.838;2.322;2024-02-26T06:27:21;8.30;;;3.77;;
819;SDS011;392;48.838;2.322;2024-02-26T06:29:48;8.80;;;4.57;;
819;SDS011;392;48.838;2.322;2024-02-26T06:32:15;6.33;;;3.90;;
819;SDS011;392;48.838;2.322;2024-02-26T06:34:42;8.87;;;5.33;;
819;SDS011;392;48.838;2.322;2024-02-26T06:37:09;7.50;;;4.40;;
819;SDS011;392;48.838;2.322;2024-02-26T06:39:38;6.40;;;4.40;;
819;SDS011;392;48.838;2.322;2024-02-26T06:42:06;6.80;;;3.80;;
819;SDS011;392;48.838;2.322;2024-02-26T06:44:33;7.13;;;3.50;;
819;SDS011;392;48.838;2.322;2024-02-26T06:47:00;11.53;;;4.90;;
819;SDS011;392;48.838;2.322;2024-02-26T06:49:28;6.97;;;4.37;;
819;SDS011;392;48.838;2.322;2024-02-26T06:51:56;8.63;;;5.50;;
819;SDS011;392;48.838;2.322;2024-02-26T06:54:23;9.43;;;4.63;;
819;SDS011;392;48.838;2.322;2024-02-26T06:56:51;5.93;;;4.40;;
819;SDS011;392;48.838;2.322;2024-02-26T06:59:18;11.20;;;4.40;;
819;SDS011;392;48.838;2.322;2024-02-26T07:01:46;6.07;;;3.93;;
819;SDS011;392;48.838;2.322;2024-02-26T07:04:13;5.73;;;3.97;;
819;SDS011;392;48.838;2.322;2024-02-26T07:06:40;6.63;;;4.20;;
819;SDS011;392;48.838;2.322;2024-02-26T07:09:09;6.53;;;4.53;;
819;SDS011;392;48.838;2.322;2024-02-26T07:11:37;7.47;;;4.67;;
819;SDS011;392;48.838;2.322;2024-02-26T07:14:08;8.57;;;5.20;;
819;SDS011;392;48.838;2.322;2024-02-26T07:16:35;8.13;;;4.57;;
819;SDS011;392;48.838;2.322;2024-02-26T07:19:03;12.10;;;5.00;;
819;SDS011;392;48.838;2.322;2024-02-26T07:21:30;7.20;;;4.67;;
819;SDS011;392;48.838;2.322;2024-02-26T07:23:57;6.80;;;5.27;;
819;SDS011;392;48.838;2.322;2024-02-26T07:26:24;8.57;;;4.87;;
819;SDS011;392;48.838;2.322;2024-02-26T07:28:52;8.57;;;4.53;;
819;SDS011;392;48.838;2.322;2024-02-26T07:31:20;6.77;;;4.30;;
819;SDS011;392;48.838;2.322;2024-02-26T07:33:48;6.97;;;4.10;;
819;SDS011;392;48.838;2.322;2024-02-26T07:36:15;8.20;;;5.00;;
819;SDS011;392;48.838;2.322;2024-02-26T07:38:42;7.20;;;4.73;;
819;SDS011;392;48.838;2.322;2024-02-26T07:41:10;6.00;;;3.97;;
819;SDS011;392;48.838;2.322;2024-02-26T07:43:38;5.80;;;3.40;;
819;SDS011;392;48.838;2.322;2024-02-26T07:46:06;9.67;;;4.30;;
819;SDS011;392;48.838;2.322;2024-02-26T07:48:34;8.93;;;4.70;;
819;SDS011;392;48.838;2.322;2024-02-26T07:51:02;5.63;;;4.30;;
819;SDS011;392;48.838;2.322;2024-02-26T07:53:29;5.43;;;4.20;;
819;SDS011;392;48.838;2.322;2024-02-26T07:55:56;5.40;;;4.17;;
819;SDS011;392;48.838;2.322;2024-02-26T07:58:24;7.83;;;4.63;;
819;SDS011;392;48.838;2.322;2024-02-26T08:00:51;6.17;;;4.23;;
819;SDS011;392;48.838;2.322;2024-02-26T08:03:18;7.00;;;4.33;;
819;SDS011;392;48.838;2.322;2024-02-26T08:05:47;7.10;;;4.00;;
819;SDS011;392;48.838;2.322;2024-02-26T08:08:14;6.33;;;4.30;;
819;SDS011;392;48.838;2.322;2024-02-26T08:10:41;7.93;;;4.00;;
819;SDS011;392;48.838;2.322;2024-02-26T08:13:08;4.83;;;4.10;;
819;SDS011;392;48.838;2.322;2024-02-26T08:15:36;4.30;;;3.90;;
819;SDS011;392;48.838;2.322;2024-02-26T08:18:03;9.50;;;4.50;;
819;SDS011;392;48.838;2.322;2024-02-26T08:20:31;7.20;;;6.43;;
819;SDS011;392;48.838;2.322;2024-02-26T08:23:00;5.93;;;5.17;;
819;SDS011;392;48.838;2.322;2024-02-26T08:25:27;7.50;;;5.10;;
819;SDS011;392;48.838;2.322;2024-02-26T08:27:54;7.80;;;5.03;;
819;SDS011;392;48.838;2.322;2024-02-26T08:30:21;5.70;;;4.43;;
819;SDS011;392;48.838;2.322;2024-02-26T08:32:48;7.63;;;4.80;;
819;SDS011;392;48.838;2.322;2024-02-26T08:35:16;8.23;;;4.70;;
819;SDS011;392;48.838;2.322;2024-02-26T08:37:44;5.40;;;3.83;;
819;SDS011;392;48.838;2.322;2024-02-26T08:40:13;5.10;;;4.10;;
819;SDS011;392;48.838;2.322;2024-02-26T08:42:40;8.87;;;3.90;;
819;SDS011;392;48.838;2.322;2024-02-26T08:45:08;8.00;;;4.30;;
819;SDS011;392;48.838;2.322;2024-02-26T08:47:36;6.50;;;4.47;;
819;SDS011;392;48.838;2.322;2024-02-26T08:50:03;8.83;;;4.30;;
819;SDS011;392;48.838;2.322;2024-02-26T08:52:32;7.17;;;4.50;;
819;SDS011;392;48.838;2.322;2024-02-26T08:54:59;7.20;;;4.13;;
819;SDS011;392;48.838;2.322;2024-02-26T08:57:28;7.57;;;4.80;;
819;SDS011;392;48.838;2.322;2024-02-26T08:59:57;9.70;;;4.60;;
819;SDS011;392;48.838;2.322;2024-02-26T09:02:24;5.30;;;3.70;;
819;SDS011;392;48.838;2.322;2024-02-26T09:04:51;5.57;;;4.40;;
819;SDS011;392;48.838;2.322;2024-02-26T09:07:20;7.40;;;4.13;;
819;SDS011;392;48.838;2.322;2024-02-26T09:09:47;8.60;;;4.20;;
819;SDS011;392;48.838;2.322;2024-02-26T09:12:15;5.40;;;4.40;;
819;SDS011;392;48.838;2.322;2024-02-26T09:14:43;5.20;;;4.07;;
819;SDS011;392;48.838;2.322;2024-02-26T09:17:10;4.23;;;3.50;;
819;SDS011;392;48.838;2.322;2024-02-26T09:19:38;6.60;;;3.40;;
819;SDS011;392;48.838;2.322;2024-02-26T09:22:06;5.27;;;3.47;;
819;SDS011;392;48.838;2.322;2024-02-26T09:24:33;6.47;;;4.13;;
819;SDS011;392;48.838;2.322;2024-02-26T09:27:00;6.33;;;3.70;;
819;SDS011;392;48.838;2.322;2024-02-26T09:29:28;6.10;;;3.70;;
819;SDS011;392;48.838;2.322;2024-02-26T09:31:56;4.23;;;3.90;;
819;SDS011;392;48.838;2.322;2024-02-26T09:34:24;5.40;;;3.73;;
819;SDS011;392;48.838;2.322;2024-02-26T09:36:51;4.30;;;3.90;;
819;SDS011;392;48.838;2.322;2024-02-26T09:39:18;3.60;;;3.30;;
819;SDS011;392;48.838;2.322;2024-02-26T09:41:47;6.17;;;3.40;;
819;SDS011;392;48.838;2.322;2024-02-26T09:44:15;3.83;;;3.27;;
819;SDS011;392;48.838;2.322;2024-02-26T09:46:47;3.97;;;3.60;;
819;SDS011;392;48.838;2.322;2024-02-26T09:49:18;3.80;;;3.40;;
819;SDS011;392;48.838;2.322;2024-02-26T09:51:46;8.90;;;4.00;;
819;SDS011;392;48.838;2.322;2024-02-26T09:54:16;3.83;;;3.47;;
819;SDS011;392;48.838;2.322;2024-02-26T09:56:43;4.50;;;3.30;;
819;SDS011;392;48.838;2.322;2024-02-26T09:59:16;3.73;;;3.37;;
819;SDS011;392;48.838;2.322;2024-02-26T10:01:44;5.30;;;3.80;;
819;SDS011;392;48.838;2.322;2024-02-26T10:04:14;3.70;;;3.20;;
819;SDS011;392;48.838;2.322;2024-02-26T10:06:43;3.93;;;3.63;;
819;SDS011;392;48.838;2.322;2024-02-26T10:09:12;4.70;;;3.60;;
819;SDS011;392;48.838;2.322;2024-02-26T10:11:41;3.60;;;3.30;;
819;SDS011;392;48.838;2.322;2024-02-26T10:14:08;6.93;;;4.10;;
819;SDS011;392;48.838;2.322;2024-02-26T10:16:37;4.30;;;3.90;;
819;SDS011;392;48.838;2.322;2024-02-26T10:19:05;4.13;;;3.73;;
819;SDS011;392;48.838;2.322;2024-02-26T10:21:33;4.30;;;3.90;;
819;SDS011;392;48.838;2.322;2024-02-26T10:24:00;5.10;;;3.40;;
819;SDS011;392;48.838;2.322;2024-02-26T10:26:27;4.13;;;3.67;;
819;SDS011;392;48.838;2.322;2024-02-26T10:28:55;5.00;;;4.53;;
819;SDS011;392;48.838;2.322;2024-02-26T10:31:26;5.00;;;3.50;;
819;SDS011;392;48.838;2.322;2024-02-26T10:33:55;4.00;;;3.70;;
819;SDS011;392;48.838;2.322;2024-02-26T10:36:22;4.17;;;3.87;;
819;SDS011;392;48.838;2.322;2024-02-26T10:38:54;4.17;;;3.77;;
819;SDS011;392;48.838;2.322;2024-02-26T10:41:21;4.53;;;3.23;;
819;SDS011;392;48.838;2.322;2024-02-26T10:43:49;3.50;;;3.20;;
819;SDS011;392;48.838;2.322;2024-02-26T10:46:17;3.80;;;3.50;;
819;SDS011;392;48.838;2.322;2024-02-26T10:48:49;5.20;;;4.70;;
819;SDS011;392;48.838;2.322;2024-02-26T10:51:17;4.83;;;4.33;;
819;SDS011;392;48.838;2.322;2024-02-26T10:53:49;5.70;;;4.73;;
819;SDS011;392;48.838;2.322;2024-02-26T10:56:20;4.23;;;3.87;;
819;SDS011;392;48.838;2.322;2024-02-26T10:58:52;5.77;;;4.60;;
819;SDS011;392;48.838;2.322;2024-02-26T11:01:21;4.83;;;3.57;;
819;SDS011;392;48.838;2.322;2024-02-26T11:03:51;4.40;;;3.23;;
819;SDS011;392;48.838;2.322;2024-02-26T11:06:19;4.23;;;3.93;;
819;SDS011;392;48.838;2.322;2024-02-26T11:08:47;3.87;;;3.57;;
819;SDS011;392;48.838;2.322;2024-02-26T11:11:16;3.40;;;3.10;;
819;SDS011;392;48.838;2.322;2024-02-26T11:13:45;3.03;;;2.73;;
819;SDS011;392;48.838;2.322;2024-02-26T11:16:16;3.23;;;3.00;;
819;SDS011;392;48.838;2.322;2024-02-26T11:18:46;3.67;;;2.93;;
819;SDS011;392;48.838;2.322;2024-02-26T11:21:15;3.10;;;2.60;;
819;SDS011;392;48.838;2.322;2024-02-26T11:23:44;4.50;;;3.97;;
819;SDS011;392;48.838;2.322;2024-02-26T11:26:12;2.93;;;2.73;;
819;SDS011;392;48.838;2.322;2024-02-26T11:28:42;4.97;;;3.13;;
819;SDS011;392;48.838;2.322;2024-02-26T11:31:12;3.73;;;3.43;;
819;SDS011;392;48.838;2.322;2024-02-26T11:33:40;4.87;;;4.43;;
819;SDS011;392;48.838;2.322;2024-02-26T11:36:08;4.30;;;4.00;;
819;SDS011;392;48.838;2.322;2024-02-26T11:38:36;4.27;;;3.87;;
819;SDS011;392;48.838;2.322;2024-02-26T11:41:04;3.87;;;3.47;;
819;SDS011;392;48.838;2.322;2024-02-26T11:43:53;4.00;;;3.70;;
819;SDS011;392;48.838;2.322;2024-02-26T11:46:26;4.57;;;4.27;;
819;SDS011;392;48.838;2.322;2024-02-26T11:48:56;4.30;;;4.00;;
819;SDS011;392;48.838;2.322;2024-02-26T11:51:26;4.70;;;4.30;;
819;SDS011;392;48.838;2.322;2024-02-26T11:53:54;4.00;;;3.70;;
819;SDS011;392;48.838;2.322;2024-02-26T11:56:24;3.30;;;3.10;;
819;SDS011;392;48.838;2.322;2024-02-26T11:58:58;3.60;;;3.40;;
819;SDS011;392;48.838;2.322;2024-02-26T12:01:40;3.30;;;3.10;;
819;SDS011;392;48.838;2.322;2024-02-26T12:04:14;3.10;;;2.90;;
819;SDS011;392;48.838;2.322;2024-02-26T12:06:46;4.00;;;3.67;;
819;SDS011;392;48.838;2.322;2024-02-26T12:09:32;3.57;;;3.37;;
819;SDS011;392;48.838;2.322;2024-02-26T12:12:01;3.77;;;3.23;;
819;SDS011;392;48.838;2.322;2024-02-26T12:14:33;3.47;;;3.27;;
819;SDS011;392;48.838;2.322;2024-02-26T12:17:01;3.30;;;3.10;;
819;SDS011;392;48.838;2.322;2024-02-26T12:19:32;3.47;;;3.27;;
819;SDS011;392;48.838;2.322;2024-02-26T12:22:00;4.57;;;3.90;;
819;SDS011;392;48.838;2.322;2024-02-26T12:24:27;3.80;;;3.60;;
819;SDS011;392;48.838;2.322;2024-02-26T12:26:55;3.40;;;3.20;;
819;SDS011;392;48.838;2.322;2024-02-26T12:29:23;3.40;;;3.10;;
819;SDS011;392;48.838;2.322;2024-02-26T12:31:52;3.93;;;3.63;;
819;SDS011;392;48.838;2.322;2024-02-26T12:34:19;3.90;;;3.70;;
819;SDS011;392;48.838;2.322;2024-02-26T12:36:46;3.30;;;3.10;;
819;SDS011;392;48.838;2.322;2024-02-26T12:39:14;3.90;;;3.70;;
819;SDS011;392;48.838;2.322;2024-02-26T12:41:41;4.80;;;4.50;;
819;SDS011;392;48.838;2.322;2024-02-26T12:44:14;4.30;;;3.90;;
819;SDS011;392;48.838;2.322;2024-02-26T12:46:42;3.90;;;3.70;;
819;SDS011;392;48.838;2.322;2024-02-26T12:49:10;5.63;;;5.23;;
819;SDS011;392;48.838;2.322;2024-02-26T12:51:42;5.50;;;5.10;;
819;SDS011;392;48.838;2.322;2024-02-26T12:54:10;6.00;;;5.50;;
819;SDS011;392;48.838;2.322;2024-02-26T12:56:38;4.80;;;4.50;;
819;SDS011;392;48.838;2.322;2024-02-26T12:59:06;5.00;;;4.60;;
819;SDS011;392;48.838;2.322;2024-02-26T13:01:35;4.57;;;4.27;;
819;SDS011;392;48.838;2.322;2024-02-26T13:04:02;3.80;;;3.60;;
819;SDS011;392;48.838;2.322;2024-02-26T13:06:33;4.20;;;4.00;;
819;SDS011;392;48.838;2.322;2024-02-26T13:09:01;4.60;;;4.20;;
819;SDS011;392;48.838;2.322;2024-02-26T13:11:29;3.67;;;3.47;;
819;SDS011;392;48.838;2.322;2024-02-26T13:13:57;3.47;;;3.37;;
819;SDS011;392;48.838;2.322;2024-02-26T13:16:24;3.37;;;3.17;;
819;SDS011;392;48.838;2.322;2024-02-26T13:18:53;3.83;;;3.63;;
819;SDS011;392;48.838;2.322;2024-02-26T13:21:20;3.80;;;3.60;;
819;SDS011;392;48.838;2.322;2024-02-26T13:23:51;3.50;;;3.30;;
819;SDS011;392;48.838;2.322;2024-02-26T13:26:21;3.47;;;3.27;;
819;SDS011;392;48.838;2.322;2024-02-26T13:28:58;3.80;;;3.60;;
819;SDS011;392;48.838;2.322;2024-02-26T13:31:27;4.20;;;3.20;;
819;SDS011;392;48.838;2.322;2024-02-26T13:33:54;3.20;;;3.00;;
819;SDS011;392;48.838;2.322;2024-02-26T13:36:22;3.43;;;3.23;;
819;SDS011;392;48.838;2.322;2024-02-26T13:38:53;3.00;;;2.90;;
819;SDS011;392;48.838;2.322;2024-02-26T13:41:21;3.80;;;3.60;;
819;SDS011;392;48.838;2.322;2024-02-26T13:43:49;3.23;;;3.13;;
819;SDS011;392;48.838;2.322;2024-02-26T13:46:17;3.70;;;3.60;;
819;SDS011;392;48.838;2.322;2024-02-26T13:48:44;4.03;;;3.73;;
819;SDS011;392;48.838;2.322;2024-02-26T13:51:12;3.40;;;3.10;;
819;SDS011;392;48.838;2.322;2024-02-26T13:53:39;3.20;;;3.00;;
819;SDS011;392;48.838;2.322;2024-02-26T13:56:08;3.50;;;3.27;;
819;SDS011;392;48.838;2.322;2024-02-26T13:58:37;3.13;;;3.03;;
819;SDS011;392;48.838;2.322;2024-02-26T14:01:04;3.20;;;3.00;;
819;SDS011;392;48.838;2.322;2024-02-26T14:03:31;3.50;;;3.30;;
819;SDS011;392;48.838;2.322;2024-02-26T14:05:58;2.50;;;2.40;;
819;SDS011;392;48.838;2.322;2024-02-26T14:08:26;3.37;;;3.07;;
819;SDS011;392;48.838;2.322;2024-02-26T14:10:53;2.43;;;2.33;;
819;SDS011;392;48.838;2.322;2024-02-26T14:13:21;2.30;;;2.20;;
819;SDS011;392;48.838;2.322;2024-02-26T14:15:49;2.80;;;2.70;;
819;SDS011;392;48.838;2.322;2024-02-26T14:18:16;2.50;;;2.30;;
819;SDS011;392;48.838;2.322;2024-02-26T14:20:43;2.10;;;2.00;;
819;SDS011;392;48.838;2.322;2024-02-26T14:23:10;2.10;;;2.00;;
819;SDS011;392;48.838;2.322;2024-02-26T14:25:38;2.37;;;2.27;;
819;SDS011;392;48.838;2.322;2024-02-26T14:28:05;2.10;;;2.10;;
819;SDS011;392;48.838;2.322;2024-02-26T14:30:34;2.70;;;2.60;;
819;SDS011;392;48.838;2.322;2024-02-26T14:33:01;2.60;;;2.50;;
819;SDS011;392;48.838;2.322;2024-02-26T14:35:28;2.83;;;2.73;;
819;SDS011;392;48.838;2.322;2024-02-26T14:37:56;2.33;;;2.27;;
819;SDS011;392;48.838;2.322;2024-02-26T14:40:26;2.40;;;2.30;;
819;SDS011;392;48.838;2.322;2024-02-26T14:42:53;2.80;;;2.70;;
819;SDS011;392;48.838;2.322;2024-02-26T14:45:22;3.00;;;2.80;;
819;SDS011;392;48.838;2.322;2024-02-26T14:47:50;2.70;;;2.60;;
819;SDS011;392;48.838;2.322;2024-02-26T14:50:17;2.87;;;2.67;;
819;SDS011;392;48.838;2.322;2024-02-26T14:52:45;2.93;;;2.70;;
819;SDS011;392;48.838;2.322;2024-02-26T14:55:13;2.67;;;2.57;;
819;SDS011;392;48.838;2.322;2024-02-26T14:57:40;3.20;;;3.10;;
819;SDS011;392;48.838;2.322;2024-02-26T15:00:08;3.30;;;3.10;;
819;SDS011;392;48.838;2.322;2024-02-26T15:02:36;3.00;;;2.90;;
819;SDS011;392;48.838;2.322;2024-02-26T15:05:05;3.60;;;3.30;;
819;SDS011;392;48.838;2.322;2024-02-26T15:07:34;3.30;;;3.20;;
819;SDS011;392;48.838;2.322;2024-02-26T15:10:05;3.70;;;3.50;;
819;SDS011;392;48.838;2.322;2024-02-26T15:12:34;3.27;;;3.17;;
819;SDS011;392;48.838;2.322;2024-02-26T15:15:01;4.10;;;3.90;;
819;SDS011;392;48.838;2.322;2024-02-26T15:17:28;3.03;;;2.93;;
819;SDS011;392;48.838;2.322;2024-02-26T15:19:57;3.27;;;3.17;;
819;SDS011;392;48.838;2.322;2024-02-26T15:22:27;3.33;;;3.13;;
819;SDS011;392;48.838;2.322;2024-02-26T15:24:54;4.03;;;3.83;;
819;SDS011;392;48.838;2.322;2024-02-26T15:27:21;3.90;;;3.70;;
819;SDS011;392;48.838;2.322;2024-02-26T15:29:49;4.40;;;4.00;;
819;SDS011;392;48.838;2.322;2024-02-26T15:32:23;3.90;;;3.70;;
819;SDS011;392;48.838;2.322;2024-02-26T15:34:52;3.27;;;3.13;;
819;SDS011;392;48.838;2.322;2024-02-26T15:37:19;4.30;;;4.10;;
819;SDS011;392;48.838;2.322;2024-02-26T15:39:48;4.00;;;3.80;;
819;SDS011;392;48.838;2.322;2024-02-26T15:42:15;4.70;;;4.40;;
819;SDS011;392;48.838;2.322;2024-02-26T15:44:43;4.50;;;4.20;;
819;SDS011;392;48.838;2.322;2024-02-26T15:47:11;4.27;;;4.00;;
819;SDS011;392;48.838;2.322;2024-02-26T15:49:38;4.57;;;4.27;;